sensor_id;sensor_type;location;lat;lon;timestamp;P1;durP1;ratioP1;P2;durP2;ratioP2
17604;SDS011;8921;50.964;6.800;2023-05-17T00:00:37;6.50;;;3.27;;
17604;SDS011;8921;50.964;6.800;2023-05-17T00:03:06;14.03;;;3.23;;
17604;SDS011;8921;50.964;6.800;2023-05-17T00:05:34;9.90;;;3.70;;
17604;SDS011;8921;50.964;6.800;2023-05-17T00:08:02;6.13;;;2.60;;
17604;SDS011;8921;50.964;6.800;2023-05-17T00:10:31;7.10;;;3.00;;
17604;SDS011;8921;50.964;6.800;2023-05-17T00:12:59;7.97;;;2.83;;
17604;SDS011;8921;50.964;6.800;2023-05-17T00:15:27;9.57;;;3.40;;
17604;SDS011;8921;50.964;6.800;2023-05-17T00:17:55;6.37;;;3.30;;
17604;SDS011;8921;50.964;6.800;2023-05-17T00:20:24;5.63;;;2.87;;
17604;SDS011;8921;50.964;6.800;2023-05-17T00:22:52;10.03;;;3.33;;
17604;SDS011;8921;50.964;6.800;2023-05-17T00:25:20;8.50;;;3.80;;
17604;SDS011;8921;50.964;6.800;2023-05-17T00:27:48;8.67;;;3.40;;
17604;SDS011;8921;50.964;6.800;2023-05-17T00:30:17;6.47;;;3.53;;
17604;SDS011;8921;50.964;6.800;2023-05-17T00:35:25;7.03;;;2.80;;
17604;SDS011;8921;50.964;6.800;2023-05-17T00:37:54;8.33;;;3.50;;
17604;SDS011;8921;50.964;6.800;2023-05-17T00:40:22;8.03;;;3.30;;
17604;SDS011;8921;50.964;6.800;2023-05-17T00:42:50;5.87;;;2.70;;
17604;SDS011;8921;50.964;6.800;2023-05-17T00:45:18;8.40;;;3.17;;
17604;SDS011;8921;50.964;6.800;2023-05-17T00:47:47;7.63;;;4.33;;
17604;SDS011;8921;50.964;6.800;2023-05-17T00:50:15;9.07;;;4.07;;
17604;SDS011;8921;50.964;6.800;2023-05-17T00:52:43;8.10;;;3.80;;
17604;SDS011;8921;50.964;6.800;2023-05-17T00:55:12;14.30;;;3.63;;
17604;SDS011;8921;50.964;6.800;2023-05-17T00:57:40;11.37;;;3.87;;
17604;SDS011;8921;50.964;6.800;2023-05-17T01:00:08;5.87;;;3.00;;
17604;SDS011;8921;50.964;6.800;2023-05-17T01:02:37;7.57;;;4.03;;
17604;SDS011;8921;50.964;6.800;2023-05-17T01:05:05;7.33;;;3.70;;
17604;SDS011;8921;50.964;6.800;2023-05-17T01:07:33;8.80;;;4.50;;
17604;SDS011;8921;50.964;6.800;2023-05-17T01:10:02;9.27;;;3.53;;
17604;SDS011;8921;50.964;6.800;2023-05-17T01:15:19;7.80;;;3.47;;
17604;SDS011;8921;50.964;6.800;2023-05-17T01:17:50;9.47;;;3.30;;
17604;SDS011;8921;50.964;6.800;2023-05-17T01:28:24;11.50;;;4.40;;
17604;SDS011;8921;50.964;6.800;2023-05-17T01:30:53;8.93;;;4.40;;
17604;SDS011;8921;50.964;6.800;2023-05-17T01:33:20;11.80;;;6.17;;
17604;SDS011;8921;50.964;6.800;2023-05-17T01:35:48;10.53;;;4.53;;
17604;SDS011;8921;50.964;6.800;2023-05-17T01:38:17;20.70;;;4.70;;
17604;SDS011;8921;50.964;6.800;2023-05-17T01:40:47;12.03;;;5.10;;
17604;SDS011;8921;50.964;6.800;2023-05-17T01:43:28;9.53;;;4.57;;
17604;SDS011;8921;50.964;6.800;2023-05-17T01:45:59;11.17;;;4.30;;
17604;SDS011;8921;50.964;6.800;2023-05-17T01:48:27;14.50;;;6.37;;
17604;SDS011;8921;50.964;6.800;2023-05-17T01:51:05;13.17;;;5.93;;
17604;SDS011;8921;50.964;6.800;2023-05-17T01:53:41;8.20;;;4.73;;
17604;SDS011;8921;50.964;6.800;2023-05-17T01:56:08;10.60;;;5.57;;
17604;SDS011;8921;50.964;6.800;2023-05-17T01:58:44;8.67;;;5.13;;
17604;SDS011;8921;50.964;6.800;2023-05-17T02:01:04;14.93;;;5.50;;
17604;SDS011;8921;50.964;6.800;2023-05-17T02:03:32;11.80;;;5.03;;
17604;SDS011;8921;50.964;6.800;2023-05-17T02:06:00;20.57;;;5.97;;
17604;SDS011;8921;50.964;6.800;2023-05-17T02:08:29;11.03;;;5.20;;
17604;SDS011;8921;50.964;6.800;2023-05-17T02:10:57;11.53;;;5.57;;
17604;SDS011;8921;50.964;6.800;2023-05-17T02:13:25;11.70;;;5.03;;
17604;SDS011;8921;50.964;6.800;2023-05-17T02:15:53;11.30;;;4.90;;
17604;SDS011;8921;50.964;6.800;2023-05-17T02:18:22;13.07;;;5.60;;
17604;SDS011;8921;50.964;6.800;2023-05-17T02:20:50;11.17;;;5.10;;
17604;SDS011;8921;50.964;6.800;2023-05-17T02:23:18;9.47;;;5.13;;
17604;SDS011;8921;50.964;6.800;2023-05-17T02:25:46;12.00;;;6.30;;
17604;SDS011;8921;50.964;6.800;2023-05-17T02:28:15;14.23;;;5.43;;
17604;SDS011;8921;50.964;6.800;2023-05-17T02:30:43;13.10;;;6.33;;
17604;SDS011;8921;50.964;6.800;2023-05-17T02:33:11;15.90;;;6.03;;
17604;SDS011;8921;50.964;6.800;2023-05-17T02:35:40;10.23;;;6.10;;
17604;SDS011;8921;50.964;6.800;2023-05-17T02:38:08;18.87;;;6.17;;
17604;SDS011;8921;50.964;6.800;2023-05-17T02:40:36;19.53;;;7.53;;
17604;SDS011;8921;50.964;6.800;2023-05-17T02:43:04;12.63;;;5.80;;
17604;SDS011;8921;50.964;6.800;2023-05-17T02:45:33;14.63;;;6.50;;
17604;SDS011;8921;50.964;6.800;2023-05-17T02:48:01;18.33;;;7.20;;
17604;SDS011;8921;50.964;6.800;2023-05-17T02:50:29;11.83;;;5.67;;
17604;SDS011;8921;50.964;6.800;2023-05-17T02:52:57;15.80;;;6.37;;
17604;SDS011;8921;50.964;6.800;2023-05-17T02:55:26;17.70;;;6.50;;
17604;SDS011;8921;50.964;6.800;2023-05-17T02:57:54;10.73;;;6.03;;
17604;SDS011;8921;50.964;6.800;2023-05-17T03:00:22;14.17;;;5.83;;
17604;SDS011;8921;50.964;6.800;2023-05-17T03:02:51;12.20;;;6.40;;
17604;SDS011;8921;50.964;6.800;2023-05-17T03:05:19;15.27;;;6.00;;
17604;SDS011;8921;50.964;6.800;2023-05-17T03:07:47;16.13;;;6.07;;
17604;SDS011;8921;50.964;6.800;2023-05-17T03:10:15;18.27;;;6.10;;
17604;SDS011;8921;50.964;6.800;2023-05-17T03:12:44;12.50;;;5.80;;
17604;SDS011;8921;50.964;6.800;2023-05-17T03:15:12;17.20;;;7.40;;
17604;SDS011;8921;50.964;6.800;2023-05-17T03:17:40;14.77;;;6.10;;
17604;SDS011;8921;50.964;6.800;2023-05-17T03:20:09;12.37;;;7.00;;
17604;SDS011;8921;50.964;6.800;2023-05-17T03:22:37;12.43;;;6.63;;
17604;SDS011;8921;50.964;6.800;2023-05-17T03:25:05;18.83;;;7.30;;
17604;SDS011;8921;50.964;6.800;2023-05-17T03:27:34;12.17;;;6.93;;
17604;SDS011;8921;50.964;6.800;2023-05-17T03:30:02;17.60;;;6.47;;
17604;SDS011;8921;50.964;6.800;2023-05-17T03:32:30;21.00;;;7.00;;
17604;SDS011;8921;50.964;6.800;2023-05-17T03:34:59;16.90;;;6.83;;
17604;SDS011;8921;50.964;6.800;2023-05-17T03:37:27;16.60;;;6.87;;
17604;SDS011;8921;50.964;6.800;2023-05-17T03:39:55;19.53;;;7.10;;
17604;SDS011;8921;50.964;6.800;2023-05-17T03:42:23;16.60;;;6.43;;
17604;SDS011;8921;50.964;6.800;2023-05-17T03:44:52;20.53;;;6.83;;
17604;SDS011;8921;50.964;6.800;2023-05-17T03:47:20;13.47;;;7.00;;
17604;SDS011;8921;50.964;6.800;2023-05-17T03:49:49;18.20;;;7.90;;
17604;SDS011;8921;50.964;6.800;2023-05-17T03:52:16;22.83;;;10.03;;
17604;SDS011;8921;50.964;6.800;2023-05-17T03:54:45;18.47;;;8.10;;
17604;SDS011;8921;50.964;6.800;2023-05-17T03:57:13;20.30;;;9.10;;
17604;SDS011;8921;50.964;6.800;2023-05-17T03:59:41;18.70;;;9.10;;
17604;SDS011;8921;50.964;6.800;2023-05-17T04:02:10;16.43;;;8.50;;
17604;SDS011;8921;50.964;6.800;2023-05-17T04:04:38;21.77;;;11.67;;
17604;SDS011;8921;50.964;6.800;2023-05-17T04:07:06;22.17;;;10.33;;
17604;SDS011;8921;50.964;6.800;2023-05-17T04:09:34;23.30;;;11.30;;
17604;SDS011;8921;50.964;6.800;2023-05-17T04:12:03;25.50;;;11.00;;
17604;SDS011;8921;50.964;6.800;2023-05-17T04:14:31;24.10;;;14.20;;
17604;SDS011;8921;50.964;6.800;2023-05-17T04:16:59;15.20;;;8.73;;
17604;SDS011;8921;50.964;6.800;2023-05-17T04:19:28;19.73;;;8.53;;
17604;SDS011;8921;50.964;6.800;2023-05-17T04:21:56;16.00;;;7.77;;
17604;SDS011;8921;50.964;6.800;2023-05-17T04:24:24;19.30;;;8.50;;
17604;SDS011;8921;50.964;6.800;2023-05-17T04:26:52;17.63;;;8.90;;
17604;SDS011;8921;50.964;6.800;2023-05-17T04:29:21;14.43;;;8.30;;
17604;SDS011;8921;50.964;6.800;2023-05-17T04:31:49;20.80;;;10.83;;
17604;SDS011;8921;50.964;6.800;2023-05-17T04:34:17;16.40;;;9.90;;
17604;SDS011;8921;50.964;6.800;2023-05-17T04:36:46;20.87;;;10.93;;
17604;SDS011;8921;50.964;6.800;2023-05-17T04:39:14;18.87;;;9.27;;
17604;SDS011;8921;50.964;6.800;2023-05-17T04:41:42;19.53;;;9.83;;
17604;SDS011;8921;50.964;6.800;2023-05-17T04:44:11;23.43;;;11.83;;
17604;SDS011;8921;50.964;6.800;2023-05-17T04:46:39;19.33;;;10.07;;
17604;SDS011;8921;50.964;6.800;2023-05-17T04:49:07;19.93;;;8.87;;
17604;SDS011;8921;50.964;6.800;2023-05-17T04:51:35;15.20;;;8.10;;
17604;SDS011;8921;50.964;6.800;2023-05-17T04:54:04;25.00;;;10.07;;
17604;SDS011;8921;50.964;6.800;2023-05-17T04:56:33;20.70;;;9.00;;
17604;SDS011;8921;50.964;6.800;2023-05-17T04:59:01;19.60;;;8.53;;
17604;SDS011;8921;50.964;6.800;2023-05-17T05:01:29;15.67;;;8.73;;
17604;SDS011;8921;50.964;6.800;2023-05-17T05:03:57;20.33;;;12.43;;
17604;SDS011;8921;50.964;6.800;2023-05-17T05:06:25;19.27;;;8.57;;
17604;SDS011;8921;50.964;6.800;2023-05-17T05:08:53;17.73;;;9.33;;
17604;SDS011;8921;50.964;6.800;2023-05-17T05:11:22;16.33;;;9.03;;
17604;SDS011;8921;50.964;6.800;2023-05-17T05:13:50;18.23;;;9.23;;
17604;SDS011;8921;50.964;6.800;2023-05-17T05:16:18;20.47;;;8.87;;
17604;SDS011;8921;50.964;6.800;2023-05-17T05:18:47;19.00;;;8.90;;
17604;SDS011;8921;50.964;6.800;2023-05-17T05:21:15;19.73;;;8.40;;
17604;SDS011;8921;50.964;6.800;2023-05-17T05:23:43;26.53;;;9.90;;
17604;SDS011;8921;50.964;6.800;2023-05-17T05:26:12;17.27;;;7.93;;
17604;SDS011;8921;50.964;6.800;2023-05-17T05:28:40;19.20;;;8.53;;
17604;SDS011;8921;50.964;6.800;2023-05-17T05:31:08;19.57;;;8.70;;
17604;SDS011;8921;50.964;6.800;2023-05-17T05:33:36;20.40;;;8.63;;
17604;SDS011;8921;50.964;6.800;2023-05-17T05:36:05;25.13;;;9.03;;
17604;SDS011;8921;50.964;6.800;2023-05-17T05:38:33;21.50;;;9.43;;
17604;SDS011;8921;50.964;6.800;2023-05-17T05:41:01;20.53;;;9.13;;
17604;SDS011;8921;50.964;6.800;2023-05-17T05:43:30;24.60;;;9.57;;
17604;SDS011;8921;50.964;6.800;2023-05-17T05:45:58;23.00;;;8.23;;
17604;SDS011;8921;50.964;6.800;2023-05-17T05:48:26;16.77;;;8.70;;
17604;SDS011;8921;50.964;6.800;2023-05-17T05:50:54;19.53;;;8.50;;
17604;SDS011;8921;50.964;6.800;2023-05-17T05:53:23;25.17;;;9.90;;
17604;SDS011;8921;50.964;6.800;2023-05-17T05:55:51;16.67;;;8.80;;
17604;SDS011;8921;50.964;6.800;2023-05-17T05:58:19;22.63;;;9.47;;
17604;SDS011;8921;50.964;6.800;2023-05-17T06:00:47;32.23;;;10.87;;
17604;SDS011;8921;50.964;6.800;2023-05-17T06:03:16;20.53;;;10.93;;
17604;SDS011;8921;50.964;6.800;2023-05-17T06:05:44;22.13;;;10.57;;
17604;SDS011;8921;50.964;6.800;2023-05-17T06:08:12;25.23;;;11.00;;
17604;SDS011;8921;50.964;6.800;2023-05-17T06:10:41;21.90;;;12.57;;
17604;SDS011;8921;50.964;6.800;2023-05-17T06:13:09;19.80;;;10.47;;
17604;SDS011;8921;50.964;6.800;2023-05-17T06:15:37;23.90;;;13.33;;
17604;SDS011;8921;50.964;6.800;2023-05-17T06:18:05;26.67;;;13.60;;
17604;SDS011;8921;50.964;6.800;2023-05-17T06:20:34;26.03;;;13.87;;
17604;SDS011;8921;50.964;6.800;2023-05-17T06:23:02;32.30;;;14.53;;
17604;SDS011;8921;50.964;6.800;2023-05-17T06:25:30;29.70;;;15.10;;
17604;SDS011;8921;50.964;6.800;2023-05-17T06:27:59;31.30;;;15.00;;
17604;SDS011;8921;50.964;6.800;2023-05-17T06:30:27;26.20;;;15.50;;
17604;SDS011;8921;50.964;6.800;2023-05-17T06:32:55;31.17;;;15.87;;
17604;SDS011;8921;50.964;6.800;2023-05-17T06:35:23;22.20;;;12.93;;
17604;SDS011;8921;50.964;6.800;2023-05-17T06:37:52;30.47;;;12.57;;
17604;SDS011;8921;50.964;6.800;2023-05-17T06:40:20;23.67;;;15.73;;
17604;SDS011;8921;50.964;6.800;2023-05-17T06:42:48;29.50;;;13.97;;
17604;SDS011;8921;50.964;6.800;2023-05-17T06:45:16;26.13;;;12.80;;
17604;SDS011;8921;50.964;6.800;2023-05-17T06:47:45;26.30;;;12.77;;
17604;SDS011;8921;50.964;6.800;2023-05-17T06:50:13;22.50;;;12.10;;
17604;SDS011;8921;50.964;6.800;2023-05-17T06:52:41;24.93;;;11.23;;
17604;SDS011;8921;50.964;6.800;2023-05-17T06:55:10;27.53;;;12.07;;
17604;SDS011;8921;50.964;6.800;2023-05-17T06:57:38;20.67;;;12.23;;
17604;SDS011;8921;50.964;6.800;2023-05-17T07:00:06;22.43;;;11.10;;
17604;SDS011;8921;50.964;6.800;2023-05-17T07:02:35;23.27;;;10.93;;
17604;SDS011;8921;50.964;6.800;2023-05-17T07:05:04;25.30;;;11.13;;
17604;SDS011;8921;50.964;6.800;2023-05-17T07:07:31;29.70;;;12.87;;
17604;SDS011;8921;50.964;6.800;2023-05-17T07:10:00;28.70;;;11.63;;
17604;SDS011;8921;50.964;6.800;2023-05-17T07:12:28;25.43;;;11.90;;
17604;SDS011;8921;50.964;6.800;2023-05-17T07:14:56;27.87;;;10.70;;
17604;SDS011;8921;50.964;6.800;2023-05-17T07:17:25;21.87;;;10.33;;
17604;SDS011;8921;50.964;6.800;2023-05-17T07:19:53;19.83;;;8.77;;
17604;SDS011;8921;50.964;6.800;2023-05-17T07:22:21;20.00;;;8.57;;
17604;SDS011;8921;50.964;6.800;2023-05-17T07:24:50;21.77;;;7.43;;
17604;SDS011;8921;50.964;6.800;2023-05-17T07:27:18;14.30;;;8.40;;
17604;SDS011;8921;50.964;6.800;2023-05-17T07:29:46;16.33;;;6.87;;
17604;SDS011;8921;50.964;6.800;2023-05-17T07:32:14;18.20;;;6.57;;
17604;SDS011;8921;50.964;6.800;2023-05-17T07:34:43;16.80;;;6.20;;
17604;SDS011;8921;50.964;6.800;2023-05-17T07:37:11;12.50;;;6.33;;
17604;SDS011;8921;50.964;6.800;2023-05-17T07:39:39;15.70;;;6.30;;
17604;SDS011;8921;50.964;6.800;2023-05-17T07:42:07;15.83;;;6.27;;
17604;SDS011;8921;50.964;6.800;2023-05-17T07:44:36;15.97;;;8.50;;
17604;SDS011;8921;50.964;6.800;2023-05-17T07:47:04;17.93;;;6.00;;
17604;SDS011;8921;50.964;6.800;2023-05-17T07:49:32;20.03;;;6.07;;
17604;SDS011;8921;50.964;6.800;2023-05-17T07:52:01;13.90;;;5.97;;
17604;SDS011;8921;50.964;6.800;2023-05-17T07:54:29;16.33;;;6.17;;
17604;SDS011;8921;50.964;6.800;2023-05-17T07:56:57;17.50;;;6.30;;
17604;SDS011;8921;50.964;6.800;2023-05-17T07:59:25;17.67;;;7.10;;
17604;SDS011;8921;50.964;6.800;2023-05-17T08:01:54;19.20;;;6.10;;
17604;SDS011;8921;50.964;6.800;2023-05-17T08:04:22;19.00;;;4.90;;
17604;SDS011;8921;50.964;6.800;2023-05-17T08:06:50;12.60;;;6.00;;
17604;SDS011;8921;50.964;6.800;2023-05-17T08:09:19;10.63;;;3.63;;
17604;SDS011;8921;50.964;6.800;2023-05-17T08:11:47;15.03;;;5.43;;
17604;SDS011;8921;50.964;6.800;2023-05-17T08:14:15;14.17;;;5.47;;
17604;SDS011;8921;50.964;6.800;2023-05-17T08:16:44;12.73;;;4.20;;
17604;SDS011;8921;50.964;6.800;2023-05-17T08:19:12;11.30;;;4.50;;
17604;SDS011;8921;50.964;6.800;2023-05-17T08:21:40;14.57;;;5.37;;
17604;SDS011;8921;50.964;6.800;2023-05-17T08:24:08;15.70;;;4.50;;
17604;SDS011;8921;50.964;6.800;2023-05-17T08:26:37;12.40;;;4.97;;
17604;SDS011;8921;50.964;6.800;2023-05-17T08:29:05;12.20;;;4.13;;
17604;SDS011;8921;50.964;6.800;2023-05-17T08:31:33;13.77;;;4.07;;
17604;SDS011;8921;50.964;6.800;2023-05-17T08:34:02;10.70;;;4.30;;
17604;SDS011;8921;50.964;6.800;2023-05-17T08:36:30;14.70;;;6.10;;
17604;SDS011;8921;50.964;6.800;2023-05-17T08:38:58;12.37;;;4.57;;
17604;SDS011;8921;50.964;6.800;2023-05-17T08:41:26;11.20;;;4.60;;
17604;SDS011;8921;50.964;6.800;2023-05-17T08:43:55;9.87;;;4.00;;
17604;SDS011;8921;50.964;6.800;2023-05-17T08:46:23;9.73;;;3.70;;
17604;SDS011;8921;50.964;6.800;2023-05-17T08:48:51;14.07;;;3.90;;
17604;SDS011;8921;50.964;6.800;2023-05-17T08:51:20;9.20;;;4.70;;
17604;SDS011;8921;50.964;6.800;2023-05-17T08:53:48;17.90;;;3.83;;
17604;SDS011;8921;50.964;6.800;2023-05-17T08:56:16;15.03;;;4.80;;
17604;SDS011;8921;50.964;6.800;2023-05-17T08:58:45;16.87;;;4.60;;
17604;SDS011;8921;50.964;6.800;2023-05-17T09:01:13;9.23;;;3.50;;
17604;SDS011;8921;50.964;6.800;2023-05-17T09:03:41;11.60;;;3.43;;
17604;SDS011;8921;50.964;6.800;2023-05-17T09:06:09;11.37;;;3.90;;
17604;SDS011;8921;50.964;6.800;2023-05-17T09:08:39;8.53;;;3.40;;
17604;SDS011;8921;50.964;6.800;2023-05-17T09:11:06;11.00;;;4.40;;
17604;SDS011;8921;50.964;6.800;2023-05-17T09:13:34;10.73;;;3.53;;
17604;SDS011;8921;50.964;6.800;2023-05-17T09:16:02;9.43;;;3.90;;
17604;SDS011;8921;50.964;6.800;2023-05-17T09:18:31;11.17;;;3.43;;
17604;SDS011;8921;50.964;6.800;2023-05-17T09:21:02;12.37;;;3.20;;
17604;SDS011;8921;50.964;6.800;2023-05-17T09:23:30;17.70;;;7.13;;
17604;SDS011;8921;50.964;6.800;2023-05-17T09:26:05;15.57;;;5.70;;
17604;SDS011;8921;50.964;6.800;2023-05-17T09:28:39;9.83;;;4.03;;
17604;SDS011;8921;50.964;6.800;2023-05-17T09:31:10;9.63;;;3.00;;
17604;SDS011;8921;50.964;6.800;2023-05-17T09:33:42;11.70;;;3.77;;
17604;SDS011;8921;50.964;6.800;2023-05-17T09:41:39;12.10;;;3.80;;
17604;SDS011;8921;50.964;6.800;2023-05-17T09:44:01;16.30;;;4.37;;
17604;SDS011;8921;50.964;6.800;2023-05-17T09:46:32;11.87;;;3.10;;
17604;SDS011;8921;50.964;6.800;2023-05-17T09:49:01;10.10;;;2.83;;
17604;SDS011;8921;50.964;6.800;2023-05-17T09:51:31;9.93;;;3.60;;
17604;SDS011;8921;50.964;6.800;2023-05-17T09:53:59;11.60;;;3.50;;
17604;SDS011;8921;50.964;6.800;2023-05-17T09:56:28;13.77;;;3.50;;
17604;SDS011;8921;50.964;6.800;2023-05-17T09:58:56;9.47;;;3.50;;
17604;SDS011;8921;50.964;6.800;2023-05-17T10:01:25;11.03;;;3.23;;
17604;SDS011;8921;50.964;6.800;2023-05-17T10:03:52;14.33;;;4.07;;
17604;SDS011;8921;50.964;6.800;2023-05-17T10:06:21;15.20;;;4.00;;
17604;SDS011;8921;50.964;6.800;2023-05-17T10:08:52;15.03;;;5.47;;
17604;SDS011;8921;50.964;6.800;2023-05-17T10:11:27;8.67;;;3.50;;
17604;SDS011;8921;50.964;6.800;2023-05-17T10:14:01;9.23;;;3.27;;
17604;SDS011;8921;50.964;6.800;2023-05-17T10:16:28;12.07;;;4.17;;
17604;SDS011;8921;50.964;6.800;2023-05-17T10:18:56;6.90;;;2.80;;
17604;SDS011;8921;50.964;6.800;2023-05-17T10:21:25;11.07;;;3.40;;
17604;SDS011;8921;50.964;6.800;2023-05-17T10:23:53;7.40;;;3.10;;
17604;SDS011;8921;50.964;6.800;2023-05-17T10:26:21;9.80;;;3.87;;
17604;SDS011;8921;50.964;6.800;2023-05-17T10:28:49;8.70;;;3.47;;
17604;SDS011;8921;50.964;6.800;2023-05-17T10:31:18;16.97;;;4.57;;
17604;SDS011;8921;50.964;6.800;2023-05-17T10:33:46;13.20;;;4.20;;
17604;SDS011;8921;50.964;6.800;2023-05-17T10:36:16;8.30;;;3.53;;
17604;SDS011;8921;50.964;6.800;2023-05-17T10:38:42;12.23;;;3.70;;
17604;SDS011;8921;50.964;6.800;2023-05-17T10:41:11;11.93;;;3.87;;
17604;SDS011;8921;50.964;6.800;2023-05-17T10:43:39;7.67;;;3.17;;
17604;SDS011;8921;50.964;6.800;2023-05-17T10:46:17;10.30;;;3.50;;
17604;SDS011;8921;50.964;6.800;2023-05-17T10:48:50;11.83;;;3.00;;
17604;SDS011;8921;50.964;6.800;2023-05-17T10:51:20;11.47;;;3.80;;
17604;SDS011;8921;50.964;6.800;2023-05-17T10:54:02;9.80;;;3.30;;
17604;SDS011;8921;50.964;6.800;2023-05-17T10:56:33;10.47;;;3.60;;
17604;SDS011;8921;50.964;6.800;2023-05-17T11:01:52;7.80;;;3.50;;
17604;SDS011;8921;50.964;6.800;2023-05-17T11:04:25;10.83;;;3.00;;
17604;SDS011;8921;50.964;6.800;2023-05-17T11:06:54;8.50;;;3.37;;
17604;SDS011;8921;50.964;6.800;2023-05-17T11:09:21;12.30;;;3.47;;
17604;SDS011;8921;50.964;6.800;2023-05-17T11:12:02;7.30;;;3.03;;
17604;SDS011;8921;50.964;6.800;2023-05-17T11:14:45;11.00;;;4.10;;
17604;SDS011;8921;50.964;6.800;2023-05-17T11:17:13;11.57;;;3.03;;
17604;SDS011;8921;50.964;6.800;2023-05-17T11:22:25;11.20;;;3.60;;
17604;SDS011;8921;50.964;6.800;2023-05-17T11:24:53;14.20;;;3.53;;
17604;SDS011;8921;50.964;6.800;2023-05-17T11:27:21;9.97;;;4.10;;
17604;SDS011;8921;50.964;6.800;2023-05-17T11:29:49;10.97;;;3.50;;
17604;SDS011;8921;50.964;6.800;2023-05-17T11:32:17;16.47;;;3.20;;
17604;SDS011;8921;50.964;6.800;2023-05-17T11:34:50;6.57;;;3.17;;
17604;SDS011;8921;50.964;6.800;2023-05-17T11:37:16;11.50;;;4.23;;
17604;SDS011;8921;50.964;6.800;2023-05-17T11:40:00;8.77;;;2.83;;
17604;SDS011;8921;50.964;6.800;2023-05-17T11:42:12;8.60;;;3.30;;
17604;SDS011;8921;50.964;6.800;2023-05-17T11:44:39;11.80;;;4.00;;
17604;SDS011;8921;50.964;6.800;2023-05-17T11:47:07;8.00;;;3.07;;
17604;SDS011;8921;50.964;6.800;2023-05-17T11:49:36;15.13;;;4.03;;
17604;SDS011;8921;50.964;6.800;2023-05-17T11:52:04;11.23;;;3.47;;
17604;SDS011;8921;50.964;6.800;2023-05-17T11:54:32;16.23;;;4.33;;
17604;SDS011;8921;50.964;6.800;2023-05-17T11:57:00;11.37;;;2.90;;
17604;SDS011;8921;50.964;6.800;2023-05-17T11:59:33;7.17;;;2.83;;
17604;SDS011;8921;50.964;6.800;2023-05-17T12:01:57;12.70;;;3.47;;
17604;SDS011;8921;50.964;6.800;2023-05-17T12:04:26;10.23;;;3.43;;
17604;SDS011;8921;50.964;6.800;2023-05-17T12:06:54;13.80;;;3.33;;
17604;SDS011;8921;50.964;6.800;2023-05-17T12:09:22;9.27;;;3.00;;
17604;SDS011;8921;50.964;6.800;2023-05-17T12:11:50;9.73;;;2.90;;
17604;SDS011;8921;50.964;6.800;2023-05-17T12:14:18;8.07;;;2.60;;
17604;SDS011;8921;50.964;6.800;2023-05-17T12:16:50;9.20;;;3.33;;
17604;SDS011;8921;50.964;6.800;2023-05-17T12:19:19;12.33;;;3.70;;
17604;SDS011;8921;50.964;6.800;2023-05-17T12:21:49;14.23;;;4.73;;
17604;SDS011;8921;50.964;6.800;2023-05-17T12:24:17;8.93;;;3.00;;
17604;SDS011;8921;50.964;6.800;2023-05-17T12:26:46;7.20;;;3.27;;
17604;SDS011;8921;50.964;6.800;2023-05-17T12:29:17;10.37;;;3.60;;
17604;SDS011;8921;50.964;6.800;2023-05-17T12:31:43;8.23;;;2.70;;
17604;SDS011;8921;50.964;6.800;2023-05-17T12:34:10;11.60;;;4.20;;
17604;SDS011;8921;50.964;6.800;2023-05-17T12:36:39;16.30;;;5.93;;
17604;SDS011;8921;50.964;6.800;2023-05-17T12:39:08;10.20;;;4.63;;
17604;SDS011;8921;50.964;6.800;2023-05-17T12:41:35;11.37;;;4.00;;
17604;SDS011;8921;50.964;6.800;2023-05-17T12:44:04;9.50;;;4.60;;
17604;SDS011;8921;50.964;6.800;2023-05-17T12:46:32;8.37;;;3.50;;
17604;SDS011;8921;50.964;6.800;2023-05-17T12:49:04;13.23;;;4.23;;
17604;SDS011;8921;50.964;6.800;2023-05-17T12:51:28;7.00;;;3.13;;
17604;SDS011;8921;50.964;6.800;2023-05-17T12:53:57;13.27;;;3.57;;
17604;SDS011;8921;50.964;6.800;2023-05-17T12:56:26;13.00;;;3.50;;
17604;SDS011;8921;50.964;6.800;2023-05-17T13:04:30;15.03;;;3.40;;
17604;SDS011;8921;50.964;6.800;2023-05-17T13:07:00;11.73;;;3.30;;
17604;SDS011;8921;50.964;6.800;2023-05-17T13:09:27;7.53;;;3.07;;
17604;SDS011;8921;50.964;6.800;2023-05-17T13:11:55;12.63;;;3.40;;
17604;SDS011;8921;50.964;6.800;2023-05-17T13:14:35;7.07;;;3.43;;
17604;SDS011;8921;50.964;6.800;2023-05-17T13:17:03;13.10;;;4.27;;
17604;SDS011;8921;50.964;6.800;2023-05-17T13:19:31;10.23;;;4.37;;
17604;SDS011;8921;50.964;6.800;2023-05-17T13:21:59;8.90;;;3.87;;
17604;SDS011;8921;50.964;6.800;2023-05-17T13:24:29;12.00;;;4.27;;
17604;SDS011;8921;50.964;6.800;2023-05-17T13:26:56;13.10;;;4.40;;
17604;SDS011;8921;50.964;6.800;2023-05-17T13:29:24;7.60;;;3.77;;
17604;SDS011;8921;50.964;6.800;2023-05-17T13:31:52;6.90;;;3.77;;
17604;SDS011;8921;50.964;6.800;2023-05-17T13:34:20;7.10;;;3.63;;
17604;SDS011;8921;50.964;6.800;2023-05-17T13:36:49;9.27;;;3.80;;
17604;SDS011;8921;50.964;6.800;2023-05-17T13:39:17;19.93;;;5.43;;
17604;SDS011;8921;50.964;6.800;2023-05-17T13:41:45;6.90;;;3.50;;
17604;SDS011;8921;50.964;6.800;2023-05-17T13:44:14;7.67;;;2.93;;
17604;SDS011;8921;50.964;6.800;2023-05-17T13:46:42;9.80;;;3.30;;
17604;SDS011;8921;50.964;6.800;2023-05-17T13:49:10;9.33;;;3.23;;
17604;SDS011;8921;50.964;6.800;2023-05-17T13:51:38;8.90;;;3.00;;
17604;SDS011;8921;50.964;6.800;2023-05-17T13:54:07;9.73;;;3.50;;
17604;SDS011;8921;50.964;6.800;2023-05-17T13:56:35;12.10;;;4.77;;
17604;SDS011;8921;50.964;6.800;2023-05-17T13:59:03;10.03;;;3.80;;
17604;SDS011;8921;50.964;6.800;2023-05-17T14:01:31;8.40;;;2.83;;
17604;SDS011;8921;50.964;6.800;2023-05-17T14:04:00;10.80;;;4.00;;
17604;SDS011;8921;50.964;6.800;2023-05-17T14:06:28;9.70;;;3.43;;
17604;SDS011;8921;50.964;6.800;2023-05-17T14:08:56;9.43;;;3.37;;
17604;SDS011;8921;50.964;6.800;2023-05-17T14:11:25;11.80;;;4.37;;
17604;SDS011;8921;50.964;6.800;2023-05-17T14:13:53;9.87;;;3.13;;
17604;SDS011;8921;50.964;6.800;2023-05-17T14:16:21;8.03;;;2.93;;
17604;SDS011;8921;50.964;6.800;2023-05-17T14:18:49;8.13;;;3.00;;
17604;SDS011;8921;50.964;6.800;2023-05-17T14:21:18;15.10;;;3.63;;
17604;SDS011;8921;50.964;6.800;2023-05-17T14:23:46;12.27;;;4.17;;
17604;SDS011;8921;50.964;6.800;2023-05-17T14:26:14;19.50;;;4.13;;
17604;SDS011;8921;50.964;6.800;2023-05-17T14:28:43;7.30;;;3.10;;
17604;SDS011;8921;50.964;6.800;2023-05-17T14:31:11;11.37;;;4.20;;
17604;SDS011;8921;50.964;6.800;2023-05-17T14:33:39;11.80;;;2.97;;
17604;SDS011;8921;50.964;6.800;2023-05-17T14:36:07;11.63;;;3.60;;
17604;SDS011;8921;50.964;6.800;2023-05-17T14:38:36;12.40;;;3.70;;
17604;SDS011;8921;50.964;6.800;2023-05-17T14:41:04;10.30;;;3.67;;
17604;SDS011;8921;50.964;6.800;2023-05-17T14:43:32;12.20;;;3.80;;
17604;SDS011;8921;50.964;6.800;2023-05-17T14:46:00;14.00;;;3.23;;
17604;SDS011;8921;50.964;6.800;2023-05-17T14:48:29;11.10;;;5.10;;
17604;SDS011;8921;50.964;6.800;2023-05-17T14:50:57;13.77;;;4.13;;
17604;SDS011;8921;50.964;6.800;2023-05-17T14:53:25;10.87;;;3.00;;
17604;SDS011;8921;50.964;6.800;2023-05-17T14:55:55;12.13;;;3.87;;
17604;SDS011;8921;50.964;6.800;2023-05-17T14:58:22;9.20;;;3.20;;
17604;SDS011;8921;50.964;6.800;2023-05-17T15:00:52;6.70;;;3.30;;
17604;SDS011;8921;50.964;6.800;2023-05-17T15:03:19;8.00;;;3.67;;
17604;SDS011;8921;50.964;6.800;2023-05-17T15:05:51;10.60;;;4.47;;
17604;SDS011;8921;50.964;6.800;2023-05-17T15:08:15;11.40;;;4.93;;
17604;SDS011;8921;50.964;6.800;2023-05-17T15:10:43;12.37;;;4.73;;
17604;SDS011;8921;50.964;6.800;2023-05-17T15:13:12;8.10;;;3.73;;
17604;SDS011;8921;50.964;6.800;2023-05-17T15:15:41;11.17;;;4.97;;
17604;SDS011;8921;50.964;6.800;2023-05-17T15:18:08;12.40;;;3.87;;
17604;SDS011;8921;50.964;6.800;2023-05-17T15:20:36;7.67;;;3.27;;
17604;SDS011;8921;50.964;6.800;2023-05-17T15:23:05;9.90;;;3.70;;
17604;SDS011;8921;50.964;6.800;2023-05-17T15:25:33;12.93;;;4.00;;
17604;SDS011;8921;50.964;6.800;2023-05-17T15:28:01;11.23;;;3.83;;